Time,TemperatureF,DewpointF,PressureIn,WindDirection,WindDirectionDegrees,WindSpeedMPH,WindSpeedGustMPH,Humidity,HourlyPrecipIn,Conditions,Clouds,dailyrainin,SoftwareType,DateUTC
2013-01-08 00:02:00,18.0,16.0,-100.00,South,185,11.0,12.0,92,-99.99,,,-99.99,,2013-01-08 06:02:00,
2013-01-08 00:12:00,18.0,16.0,-100.00,South,185,11.0,12.0,92,-99.99,,,-99.99,,2013-01-08 06:12:00,
2013-01-08 00:22:00,18.0,16.0,-100.00,South,185,11.0,12.0,92,-99.99,,,-99.99,,2013-01-08 06:22:00,
2013-01-08 00:33:00,17.0,15.0,-100.00,SSW,200,9.0,12.0,92,-99.99,,,-99.99,,2013-01-08 06:33:00,
2013-01-08 00:43:00,17.0,15.0,-100.00,SSW,200,9.0,12.0,92,-99.99,,,-99.99,,2013-01-08 06:43:00,
2013-01-08 00:53:00,17.0,15.0,-100.00,SSW,200,9.0,12.0,92,-99.99,,,-99.99,,2013-01-08 06:53:00,
2013-01-08 01:02:00,16.0,14.0,-100.00,SSW,195,7.0,11.0,92,-99.99,,,-99.99,,2013-01-08 07:02:00,
2013-01-08 01:12:00,16.0,14.0,-100.00,SSW,195,7.0,11.0,92,-99.99,,,-99.99,,2013-01-08 07:12:00,
2013-01-08 01:22:00,16.0,14.0,-100.00,SSW,195,7.0,11.0,92,-99.99,,,-99.99,,2013-01-08 07:22:00,
2013-01-08 01:32:00,16.0,14.0,-100.00,South,185,11.0,13.0,92,-99.99,,,-99.99,,2013-01-08 07:32:00,
2013-01-08 01:42:00,16.0,14.0,-100.00,South,185,11.0,13.0,92,-99.99,,,-99.99,,2013-01-08 07:42:00,
2013-01-08 01:52:00,16.0,14.0,-100.00,South,185,11.0,13.0,92,-99.99,,,-99.99,,2013-01-08 07:52:00,
2013-01-08 02:02:00,17.0,15.0,-100.00,South,175,8.0,12.0,92,-99.99,,,-99.99,,2013-01-08 08:02:00,
2013-01-08 02:12:00,17.0,15.0,-100.00,South,175,8.0,12.0,92,-99.99,,,-99.99,,2013-01-08 08:12:00,
2013-01-08 02:22:00,17.0,15.0,-100.00,South,175,8.0,12.0,92,-99.99,,,-99.99,,2013-01-08 08:22:00,
2013-01-08 02:32:00,17.0,15.0,-100.00,South,180,7.0,12.0,92,-99.99,,,-99.99,,2013-01-08 08:32:00,
2013-01-08 02:42:00,17.0,15.0,-100.00,South,180,7.0,12.0,92,-99.99,,,-99.99,,2013-01-08 08:42:00,
2013-01-08 02:53:00,17.0,15.0,-100.00,South,180,7.0,12.0,92,-99.99,,,-99.99,,2013-01-08 08:53:00,
2013-01-08 03:02:00,16.0,14.0,-100.00,South,170,9.0,14.0,92,-99.99,,,-99.99,,2013-01-08 09:02:00,
2013-01-08 03:12:00,16.0,14.0,-100.00,South,170,9.0,14.0,92,-99.99,,,-99.99,,2013-01-08 09:12:00,
2013-01-08 03:22:00,16.0,14.0,-100.00,South,170,9.0,14.0,92,-99.99,,,-99.99,,2013-01-08 09:22:00,
2013-01-08 03:32:00,16.0,14.0,-100.00,South,170,8.0,14.0,92,-99.99,,,-99.99,,2013-01-08 09:32:00,
2013-01-08 03:42:00,16.0,14.0,-100.00,South,170,8.0,14.0,92,-99.99,,,-99.99,,2013-01-08 09:42:00,
2013-01-08 03:52:00,16.0,14.0,-100.00,South,170,8.0,14.0,92,-99.99,,,-99.99,,2013-01-08 09:52:00,
2013-01-08 04:02:00,15.0,13.0,-100.00,South,180,9.0,11.0,93,-99.99,,,-99.99,,2013-01-08 10:02:00,
2013-01-08 04:12:00,15.0,13.0,-100.00,South,180,9.0,11.0,93,-99.99,,,-99.99,,2013-01-08 10:12:00,
2013-01-08 04:22:00,15.0,13.0,-100.00,South,180,9.0,11.0,93,-99.99,,,-99.99,,2013-01-08 10:22:00,
2013-01-08 04:32:00,15.0,14.0,-100.00,SSE,155,9.0,12.0,94,-99.99,,,-99.99,,2013-01-08 10:32:00,
2013-01-08 04:42:00,15.0,14.0,-100.00,SSE,155,9.0,12.0,94,-99.99,,,-99.99,,2013-01-08 10:42:00,
2013-01-08 04:52:00,15.0,14.0,-100.00,SSE,155,9.0,12.0,94,-99.99,,,-99.99,,2013-01-08 10:52:00,
2013-01-08 05:02:00,15.0,13.0,-100.00,SSE,160,9.0,11.0,94,-99.99,,,-99.99,,2013-01-08 11:02:00,
2013-01-08 05:12:00,15.0,13.0,-100.00,SSE,160,9.0,11.0,94,-99.99,,,-99.99,,2013-01-08 11:12:00,
2013-01-08 05:22:00,15.0,13.0,-100.00,SSE,160,9.0,11.0,94,-99.99,,,-99.99,,2013-01-08 11:22:00,
2013-01-08 05:32:00,14.0,13.0,-100.00,SE,140,7.0,10.0,95,-99.99,,,-99.99,,2013-01-08 11:32:00,
2013-01-08 05:42:00,14.0,13.0,-100.00,SE,140,7.0,10.0,95,-99.99,,,-99.99,,2013-01-08 11:42:00,
2013-01-08 05:53:00,14.0,13.0,-100.00,SE,140,7.0,10.0,95,-99.99,,,-99.99,,2013-01-08 11:53:00,
2013-01-08 06:02:00,14.0,13.0,-100.00,SE,140,8.0,16.0,96,-99.99,,,-99.99,,2013-01-08 12:02:00,
2013-01-08 06:12:00,14.0,13.0,-100.00,SE,140,8.0,16.0,96,-99.99,,,-99.99,,2013-01-08 12:12:00,
2013-01-08 06:22:00,14.0,13.0,-100.00,SE,140,8.0,16.0,96,-99.99,,,-99.99,,2013-01-08 12:22:00,
2013-01-08 06:32:00,11.0,10.0,-100.00,SE,130,7.0,10.0,96,-99.99,,,-99.99,,2013-01-08 12:32:00,
2013-01-08 06:43:00,11.0,10.0,-100.00,SE,130,7.0,10.0,96,-99.99,,,-99.99,,2013-01-08 12:43:00,
2013-01-08 06:53:00,11.0,10.0,-100.00,SE,130,7.0,10.0,96,-99.99,,,-99.99,,2013-01-08 12:53:00,
2013-01-08 07:03:00,11.0,10.0,-100.00,SE,135,9.0,14.0,97,-99.99,,,-99.99,,2013-01-08 13:03:00,
2013-01-08 07:12:00,11.0,10.0,-100.00,SE,135,9.0,14.0,97,-99.99,,,-99.99,,2013-01-08 13:12:00,
2013-01-08 07:22:00,11.0,10.0,-100.00,SE,135,9.0,14.0,97,-99.99,,,-99.99,,2013-01-08 13:22:00,
2013-01-08 07:33:00,15.0,14.0,-100.00,SSE,160,11.0,16.0,98,-99.99,,,-99.99,,2013-01-08 13:33:00,
2013-01-08 07:43:00,15.0,14.0,-100.00,SSE,160,11.0,16.0,98,-99.99,,,-99.99,,2013-01-08 13:43:00,
2013-01-08 07:53:00,15.0,14.0,-100.00,SSE,160,11.0,16.0,98,-99.99,,,-99.99,,2013-01-08 13:53:00,
2013-01-08 08:02:00,16.0,16.0,-100.00,SSE,160,12.0,17.0,99,-99.99,,,-99.99,,2013-01-08 14:02:00,
2013-01-08 08:12:00,16.0,16.0,-100.00,SSE,160,12.0,17.0,99,-99.99,,,-99.99,,2013-01-08 14:12:00,
2013-01-08 08:23:00,16.0,16.0,-100.00,SSE,160,12.0,17.0,99,-99.99,,,-99.99,,2013-01-08 14:23:00,
2013-01-08 08:33:00,17.0,16.0,-100.00,SSE,160,13.0,17.0,99,-99.99,,,-99.99,,2013-01-08 14:33:00,
2013-01-08 08:43:00,17.0,16.0,-100.00,SSE,160,13.0,17.0,99,-99.99,,,-99.99,,2013-01-08 14:43:00,
2013-01-08 08:53:00,17.0,16.0,-100.00,SSE,160,13.0,17.0,99,-99.99,,,-99.99,,2013-01-08 14:53:00,
2013-01-08 09:02:00,18.0,18.0,-100.00,SSE,160,13.0,21.0,99,-99.99,,,-99.99,,2013-01-08 15:02:00,
2013-01-08 09:12:00,18.0,18.0,-100.00,SSE,160,13.0,21.0,99,-99.99,,,-99.99,,2013-01-08 15:12:00,
2013-01-08 09:22:00,18.0,18.0,-100.00,SSE,160,13.0,21.0,99,-99.99,,,-99.99,,2013-01-08 15:22:00,
2013-01-08 09:33:00,20.0,20.0,-100.00,South,180,11.0,23.0,97,-99.99,,,-99.99,,2013-01-08 15:33:00,
2013-01-08 09:43:00,20.0,20.0,-100.00,South,180,11.0,23.0,97,-99.99,,,-99.99,,2013-01-08 15:43:00,
2013-01-08 09:53:00,20.0,20.0,-100.00,South,180,11.0,23.0,97,-99.99,,,-99.99,,2013-01-08 15:53:00,
2013-01-08 10:03:00,21.0,20.0,-100.00,South,175,13.0,23.0,94,-99.99,,,-99.99,,2013-01-08 16:03:00,
2013-01-08 10:12:00,21.0,20.0,-100.00,South,175,13.0,23.0,94,-99.99,,,-99.99,,2013-01-08 16:12:00,
2013-01-08 10:22:00,21.0,20.0,-100.00,South,175,13.0,23.0,94,-99.99,,,-99.99,,2013-01-08 16:22:00,
2013-01-08 10:33:00,22.0,20.0,-100.00,South,180,14.0,29.0,94,-99.99,,,-99.99,,2013-01-08 16:33:00,
2013-01-08 10:43:00,22.0,20.0,-100.00,South,180,14.0,29.0,94,-99.99,,,-99.99,,2013-01-08 16:43:00,
2013-01-08 10:53:00,22.0,20.0,-100.00,South,180,14.0,29.0,94,-99.99,,,-99.99,,2013-01-08 16:53:00,
2013-01-08 11:03:00,24.0,23.0,-100.00,South,170,12.0,22.0,96,-99.99,,,-99.99,,2013-01-08 17:03:00,
2013-01-08 11:13:00,24.0,23.0,-100.00,South,170,12.0,22.0,96,-99.99,,,-99.99,,2013-01-08 17:13:00,
2013-01-08 11:23:00,24.0,23.0,-100.00,South,170,12.0,22.0,96,-99.99,,,-99.99,,2013-01-08 17:23:00,
2013-01-08 11:33:00,24.0,23.0,-100.00,South,170,12.0,22.0,96,-99.99,,,-99.99,,2013-01-08 17:33:00,
2013-01-08 12:03:00,28.0,28.0,-100.00,SSE,160,16.0,22.0,99,-99.99,,,-99.99,,2013-01-08 18:03:00,
2013-01-08 12:13:00,28.0,28.0,-100.00,SSE,160,16.0,22.0,99,-99.99,,,-99.99,,2013-01-08 18:13:00,
2013-01-08 12:23:00,28.0,28.0,-100.00,SSE,160,16.0,22.0,99,-99.99,,,-99.99,,2013-01-08 18:23:00,
2013-01-08 12:33:00,30.0,30.0,-100.00,SSW,200,12.0,23.0,99,-99.99,,,-99.99,,2013-01-08 18:33:00,
2013-01-08 12:43:00,30.0,30.0,-100.00,SSW,200,12.0,23.0,99,-99.99,,,-99.99,,2013-01-08 18:43:00,
2013-01-08 12:53:00,30.0,30.0,-100.00,SSW,200,12.0,23.0,99,-99.99,,,-99.99,,2013-01-08 18:53:00,
2013-01-08 13:03:00,31.0,31.0,-100.00,SSE,165,13.0,18.0,99,-99.99,,,-99.99,,2013-01-08 19:03:00,
2013-01-08 13:12:00,31.0,31.0,-100.00,SSE,165,13.0,18.0,99,-99.99,,,-99.99,,2013-01-08 19:12:00,
2013-01-08 13:22:00,31.0,31.0,-100.00,SSE,165,13.0,18.0,99,-99.99,,,-99.99,,2013-01-08 19:22:00,
2013-01-08 13:32:00,31.0,31.0,-100.00,SSE,160,19.0,27.0,99,-99.99,,,-99.99,,2013-01-08 19:32:00,
2013-01-08 13:43:00,31.0,31.0,-100.00,SSE,160,19.0,27.0,99,-99.99,,,-99.99,,2013-01-08 19:43:00,
2013-01-08 13:53:00,31.0,31.0,-100.00,SSE,160,19.0,27.0,99,-99.99,,,-99.99,,2013-01-08 19:53:00,
2013-01-08 14:03:00,31.0,31.0,-100.00,South,185,15.0,24.0,99,-99.99,,,-99.99,,2013-01-08 20:03:00,
2013-01-08 14:12:00,31.0,31.0,-100.00,South,185,15.0,24.0,99,-99.99,,,-99.99,,2013-01-08 20:12:00,
2013-01-08 14:23:00,31.0,31.0,-100.00,South,185,15.0,24.0,99,-99.99,,,-99.99,,2013-01-08 20:23:00,
2013-01-08 14:33:00,31.0,31.0,-100.00,South,185,15.0,24.0,99,-99.99,,,-99.99,,2013-01-08 20:33:00,
2013-01-08 15:03:00,31.0,30.0,-100.00,South,190,12.0,21.0,99,-99.99,,,-99.99,,2013-01-08 21:03:00,
2013-01-08 15:13:00,31.0,30.0,-100.00,South,190,12.0,21.0,99,-99.99,,,-99.99,,2013-01-08 21:13:00,
2013-01-08 15:23:00,31.0,30.0,-100.00,South,190,12.0,21.0,99,-99.99,,,-99.99,,2013-01-08 21:23:00,
2013-01-08 15:33:00,31.0,30.0,-100.00,SSW,195,14.0,22.0,99,-99.99,,,-99.99,,2013-01-08 21:33:00,
2013-01-08 15:43:00,31.0,30.0,-100.00,SSW,195,14.0,22.0,99,-99.99,,,-99.99,,2013-01-08 21:43:00,
2013-01-08 15:53:00,31.0,30.0,-100.00,SSW,195,14.0,22.0,99,-99.99,,,-99.99,,2013-01-08 21:53:00,
2013-01-08 16:03:00,31.0,31.0,-100.00,SSW,200,14.0,20.0,99,-99.99,,,-99.99,,2013-01-08 22:03:00,
2013-01-08 16:12:00,31.0,31.0,-100.00,SSW,200,14.0,20.0,99,-99.99,,,-99.99,,2013-01-08 22:12:00,
2013-01-08 16:23:00,31.0,31.0,-100.00,SSW,200,14.0,20.0,99,-99.99,,,-99.99,,2013-01-08 22:23:00,
2013-01-08 16:33:00,31.0,31.0,-100.00,SSW,200,12.0,17.0,99,-99.99,,,-99.99,,2013-01-08 22:33:00,
2013-01-08 16:43:00,31.0,31.0,-100.00,SSW,200,12.0,17.0,99,-99.99,,,-99.99,,2013-01-08 22:43:00,
2013-01-08 16:53:00,31.0,31.0,-100.00,SSW,200,12.0,17.0,99,-99.99,,,-99.99,,2013-01-08 22:53:00,
2013-01-08 17:02:00,31.0,31.0,-100.00,SSW,200,11.0,16.0,99,-99.99,,,-99.99,,2013-01-08 23:02:00,
2013-01-08 17:12:00,31.0,31.0,-100.00,SSW,200,11.0,16.0,99,-99.99,,,-99.99,,2013-01-08 23:12:00,
2013-01-08 17:22:00,31.0,31.0,-100.00,SSW,200,11.0,16.0,99,-99.99,,,-99.99,,2013-01-08 23:22:00,
2013-01-08 17:32:00,31.0,30.0,-100.00,SSW,210,9.0,14.0,98,-99.99,,,-99.99,,2013-01-08 23:32:00,
2013-01-08 17:43:00,31.0,30.0,-100.00,SSW,210,9.0,14.0,98,-99.99,,,-99.99,,2013-01-08 23:43:00,
2013-01-08 17:53:00,31.0,30.0,-100.00,SSW,210,9.0,14.0,98,-99.99,,,-99.99,,2013-01-08 23:53:00,
2013-01-08 18:02:00,29.0,28.0,-100.00,SW,235,11.0,13.0,98,-99.99,,,-99.99,,2013-01-09 00:02:00,
2013-01-08 18:12:00,29.0,28.0,-100.00,SW,235,11.0,13.0,98,-99.99,,,-99.99,,2013-01-09 00:12:00,
2013-01-08 18:22:00,29.0,28.0,-100.00,SW,235,11.0,13.0,98,-99.99,,,-99.99,,2013-01-09 00:22:00,
2013-01-08 18:33:00,30.0,28.0,-100.00,WSW,240,13.0,19.0,92,-99.99,,,-99.99,,2013-01-09 00:33:00,
2013-01-08 18:43:00,30.0,28.0,-100.00,WSW,240,13.0,19.0,92,-99.99,,,-99.99,,2013-01-09 00:43:00,
2013-01-08 18:53:00,30.0,28.0,-100.00,WSW,240,13.0,19.0,92,-99.99,,,-99.99,,2013-01-09 00:53:00,
2013-01-08 19:02:00,31.0,28.0,-100.00,WSW,250,13.0,17.0,90,-99.99,,,-99.99,,2013-01-09 01:02:00,
2013-01-08 19:12:00,31.0,28.0,-100.00,WSW,250,13.0,17.0,90,-99.99,,,-99.99,,2013-01-09 01:12:00,
2013-01-08 19:22:00,31.0,28.0,-100.00,WSW,250,13.0,17.0,90,-99.99,,,-99.99,,2013-01-09 01:22:00,
2013-01-08 19:32:00,33.0,28.0,-100.00,West,270,19.0,26.0,81,-99.99,,,-99.99,,2013-01-09 01:32:00,
2013-01-08 19:42:00,33.0,28.0,-100.00,West,270,19.0,26.0,81,-99.99,,,-99.99,,2013-01-09 01:42:00,
2013-01-08 19:52:00,33.0,28.0,-100.00,West,270,19.0,26.0,81,-99.99,,,-99.99,,2013-01-09 01:52:00,
2013-01-08 20:02:00,32.0,27.0,-100.00,West,260,14.0,19.0,80,-99.99,,,-99.99,,2013-01-09 02:02:00,
2013-01-08 20:12:00,32.0,27.0,-100.00,West,260,14.0,19.0,80,-99.99,,,-99.99,,2013-01-09 02:12:00,
2013-01-08 20:22:00,32.0,27.0,-100.00,West,260,14.0,19.0,80,-99.99,,,-99.99,,2013-01-09 02:22:00,
2013-01-08 20:33:00,32.0,26.0,-100.00,West,265,18.0,28.0,77,-99.99,,,-99.99,,2013-01-09 02:33:00,
2013-01-08 20:43:00,32.0,26.0,-100.00,West,265,18.0,28.0,77,-99.99,,,-99.99,,2013-01-09 02:43:00,
2013-01-08 20:53:00,32.0,26.0,-100.00,West,265,18.0,28.0,77,-99.99,,,-99.99,,2013-01-09 02:53:00,
2013-01-08 21:03:00,32.0,26.0,-100.00,West,275,24.0,35.0,77,-99.99,,,-99.99,,2013-01-09 03:03:00,
2013-01-08 21:12:00,32.0,26.0,-100.00,West,275,24.0,35.0,77,-99.99,,,-99.99,,2013-01-09 03:12:00,
2013-01-08 21:22:00,32.0,26.0,-100.00,West,275,24.0,35.0,77,-99.99,,,-99.99,,2013-01-09 03:22:00,
2013-01-08 21:33:00,32.0,26.0,-100.00,West,270,21.0,31.0,76,-99.99,,,-99.99,,2013-01-09 03:33:00,
2013-01-08 21:43:00,32.0,26.0,-100.00,West,270,21.0,31.0,76,-99.99,,,-99.99,,2013-01-09 03:43:00,
2013-01-08 21:53:00,32.0,26.0,-100.00,West,270,21.0,31.0,76,-99.99,,,-99.99,,2013-01-09 03:53:00,
2013-01-08 22:02:00,32.0,24.0,-100.00,West,270,27.0,39.0,72,-99.99,,,-99.99,,2013-01-09 04:02:00,
2013-01-08 22:12:00,32.0,24.0,-100.00,West,270,27.0,39.0,72,-99.99,,,-99.99,,2013-01-09 04:12:00,
2013-01-08 22:22:00,32.0,24.0,-100.00,West,270,27.0,39.0,72,-99.99,,,-99.99,,2013-01-09 04:22:00,
2013-01-08 22:32:00,33.0,24.0,-100.00,West,275,23.0,38.0,69,-99.99,,,-99.99,,2013-01-09 04:32:00,
2013-01-08 22:43:00,33.0,24.0,-100.00,West,275,23.0,38.0,69,-99.99,,,-99.99,,2013-01-09 04:43:00,
2013-01-08 22:52:00,33.0,24.0,-100.00,West,275,23.0,38.0,69,-99.99,,,-99.99,,2013-01-09 04:52:00,
2013-01-08 23:03:00,32.0,24.0,-100.00,West,270,22.0,37.0,73,-99.99,,,-99.99,,2013-01-09 05:03:00,
2013-01-08 23:12:00,32.0,24.0,-100.00,West,270,22.0,37.0,73,-99.99,,,-99.99,,2013-01-09 05:12:00,
2013-01-08 23:22:00,32.0,24.0,-100.00,West,270,22.0,37.0,73,-99.99,,,-99.99,,2013-01-09 05:22:00,
2013-01-08 23:33:00,32.0,26.0,-100.00,West,270,19.0,28.0,78,-99.99,,,-99.99,,2013-01-09 05:33:00,
2013-01-08 23:43:00,32.0,26.0,-100.00,West,270,19.0,28.0,78,-99.99,,,-99.99,,2013-01-09 05:43:00,
2013-01-08 23:53:00,32.0,26.0,-100.00,West,270,19.0,28.0,78,-99.99,,,-99.99,,2013-01-09 05:53:00,